Terminal Aerodrome Forecast
Issued by NWS

Home | Current Version | Previous Version | Text Only | Print | Product List | Glossary Off
Versions: 1 2 3 4 5 6 7 8 9 10 11 12 13 14 15 16 17 18 19 20 21 22 23 24 25 26 27 28

000
FTUS43 KDDC 271137
TAFHYS
TAF
KHYS 271137Z 2712/2812 33018G25KT P6SM BKN015 BKN100
      TEMPO 2712/2714 P6SM -TSRA BKN015CB
     FM271700 29018G26KT P6SM BKN040
     FM272300 32011KT P6SM FEW050=

USA.gov is the U.S. government's official web portal to all federal, state and local government web resources and services.